ΕΜΥ, Εθνική Μετεωρολογική Υπηρεσία - Δελτία Καιρού, Προγνώσεις

ΑΕΡΟΝΑΥΤΙΛΙΑ

GREEK AIRPORTS CODES

TAF LGZA 031100Z 0312/0321 VRB05KT CAVOK=

EUROPEAN AIRPORTS CODES